sensor_id;sensor_type;location;lat;lon;timestamp;P1;durP1;ratioP1;P2;durP2;ratioP2
65096;SDS011;51686;46.758;4.356;2023-08-21T00:02:06;8.50;;;4.88;;
65096;SDS011;51686;46.758;4.356;2023-08-21T00:04:53;8.73;;;4.47;;
65096;SDS011;51686;46.758;4.356;2023-08-21T00:07:40;8.13;;;4.38;;
65096;SDS011;51686;46.758;4.356;2023-08-21T00:10:27;9.35;;;4.95;;
65096;SDS011;51686;46.758;4.356;2023-08-21T00:13:17;8.50;;;4.72;;
65096;SDS011;51686;46.758;4.356;2023-08-21T00:16:05;8.05;;;4.57;;
65096;SDS011;51686;46.758;4.356;2023-08-21T00:18:52;8.57;;;4.80;;
65096;SDS011;51686;46.758;4.356;2023-08-21T00:21:39;7.60;;;4.07;;
65096;SDS011;51686;46.758;4.356;2023-08-21T00:24:26;8.38;;;4.93;;
65096;SDS011;51686;46.758;4.356;2023-08-21T00:27:13;8.52;;;4.68;;
65096;SDS011;51686;46.758;4.356;2023-08-21T00:30:00;9.30;;;5.35;;
65096;SDS011;51686;46.758;4.356;2023-08-21T00:32:47;8.07;;;4.50;;
65096;SDS011;51686;46.758;4.356;2023-08-21T00:35:34;8.48;;;4.72;;
65096;SDS011;51686;46.758;4.356;2023-08-21T00:38:21;8.70;;;4.88;;
65096;SDS011;51686;46.758;4.356;2023-08-21T00:41:09;8.57;;;4.78;;
65096;SDS011;51686;46.758;4.356;2023-08-21T00:43:56;8.18;;;4.55;;
65096;SDS011;51686;46.758;4.356;2023-08-21T00:46:43;8.98;;;5.38;;
65096;SDS011;51686;46.758;4.356;2023-08-21T00:49:30;7.88;;;4.57;;
65096;SDS011;51686;46.758;4.356;2023-08-21T00:52:17;7.95;;;4.85;;
65096;SDS011;51686;46.758;4.356;2023-08-21T00:55:04;8.00;;;4.60;;
65096;SDS011;51686;46.758;4.356;2023-08-21T00:57:52;8.23;;;4.80;;
65096;SDS011;51686;46.758;4.356;2023-08-21T01:00:40;8.33;;;4.97;;
65096;SDS011;51686;46.758;4.356;2023-08-21T01:03:27;8.40;;;5.10;;
65096;SDS011;51686;46.758;4.356;2023-08-21T01:06:14;8.95;;;5.07;;
65096;SDS011;51686;46.758;4.356;2023-08-21T01:09:02;8.80;;;5.03;;
65096;SDS011;51686;46.758;4.356;2023-08-21T01:12:09;9.55;;;5.25;;
65096;SDS011;51686;46.758;4.356;2023-08-21T01:15:09;9.02;;;4.72;;
65096;SDS011;51686;46.758;4.356;2023-08-21T01:17:56;8.73;;;4.87;;
65096;SDS011;51686;46.758;4.356;2023-08-21T01:20:44;8.45;;;4.97;;
65096;SDS011;51686;46.758;4.356;2023-08-21T01:23:34;8.32;;;4.97;;
65096;SDS011;51686;46.758;4.356;2023-08-21T01:26:21;9.68;;;5.13;;
65096;SDS011;51686;46.758;4.356;2023-08-21T01:29:08;9.20;;;5.32;;
65096;SDS011;51686;46.758;4.356;2023-08-21T01:32:00;8.75;;;5.07;;
65096;SDS011;51686;46.758;4.356;2023-08-21T01:34:52;8.95;;;5.38;;
65096;SDS011;51686;46.758;4.356;2023-08-21T01:37:41;7.93;;;4.68;;
65096;SDS011;51686;46.758;4.356;2023-08-21T01:40:28;8.50;;;5.13;;
65096;SDS011;51686;46.758;4.356;2023-08-21T01:43:15;8.15;;;4.85;;
65096;SDS011;51686;46.758;4.356;2023-08-21T01:46:02;9.13;;;5.15;;
65096;SDS011;51686;46.758;4.356;2023-08-21T01:48:50;8.25;;;5.28;;
65096;SDS011;51686;46.758;4.356;2023-08-21T01:51:36;8.90;;;5.30;;
65096;SDS011;51686;46.758;4.356;2023-08-21T01:54:23;8.00;;;4.75;;
65096;SDS011;51686;46.758;4.356;2023-08-21T01:57:10;8.63;;;5.07;;
65096;SDS011;51686;46.758;4.356;2023-08-21T01:59:57;8.73;;;5.30;;
65096;SDS011;51686;46.758;4.356;2023-08-21T02:02:44;10.23;;;5.35;;
65096;SDS011;51686;46.758;4.356;2023-08-21T02:05:36;9.10;;;5.23;;
65096;SDS011;51686;46.758;4.356;2023-08-21T02:08:25;9.13;;;4.93;;
65096;SDS011;51686;46.758;4.356;2023-08-21T02:11:14;9.18;;;5.18;;
65096;SDS011;51686;46.758;4.356;2023-08-21T02:14:00;10.48;;;5.38;;
65096;SDS011;51686;46.758;4.356;2023-08-21T02:16:47;8.90;;;5.40;;
65096;SDS011;51686;46.758;4.356;2023-08-21T02:19:34;9.27;;;5.18;;
65096;SDS011;51686;46.758;4.356;2023-08-21T02:22:21;8.73;;;5.10;;
65096;SDS011;51686;46.758;4.356;2023-08-21T02:25:08;8.63;;;5.35;;
65096;SDS011;51686;46.758;4.356;2023-08-21T02:27:55;8.18;;;5.05;;
65096;SDS011;51686;46.758;4.356;2023-08-21T02:30:42;8.55;;;4.88;;
65096;SDS011;51686;46.758;4.356;2023-08-21T02:33:29;8.65;;;5.30;;
65096;SDS011;51686;46.758;4.356;2023-08-21T02:36:16;9.18;;;5.20;;
65096;SDS011;51686;46.758;4.356;2023-08-21T02:39:03;8.40;;;4.82;;
65096;SDS011;51686;46.758;4.356;2023-08-21T02:41:50;9.20;;;5.72;;
65096;SDS011;51686;46.758;4.356;2023-08-21T02:44:37;8.60;;;5.10;;
65096;SDS011;51686;46.758;4.356;2023-08-21T02:47:24;8.65;;;5.20;;
65096;SDS011;51686;46.758;4.356;2023-08-21T02:50:11;9.05;;;5.03;;
65096;SDS011;51686;46.758;4.356;2023-08-21T02:52:58;9.00;;;5.00;;
65096;SDS011;51686;46.758;4.356;2023-08-21T02:55:45;8.88;;;5.35;;
65096;SDS011;51686;46.758;4.356;2023-08-21T02:58:32;8.48;;;5.15;;
65096;SDS011;51686;46.758;4.356;2023-08-21T03:01:18;9.30;;;5.50;;
65096;SDS011;51686;46.758;4.356;2023-08-21T03:04:05;9.00;;;5.22;;
65096;SDS011;51686;46.758;4.356;2023-08-21T03:06:52;9.23;;;5.72;;
65096;SDS011;51686;46.758;4.356;2023-08-21T03:09:39;9.20;;;5.70;;
65096;SDS011;51686;46.758;4.356;2023-08-21T03:12:27;9.88;;;5.38;;
65096;SDS011;51686;46.758;4.356;2023-08-21T03:15:14;9.70;;;5.93;;
65096;SDS011;51686;46.758;4.356;2023-08-21T03:18:00;9.50;;;5.47;;
65096;SDS011;51686;46.758;4.356;2023-08-21T03:20:47;8.23;;;5.10;;
65096;SDS011;51686;46.758;4.356;2023-08-21T03:23:34;8.88;;;5.35;;
65096;SDS011;51686;46.758;4.356;2023-08-21T03:26:22;9.13;;;5.43;;
65096;SDS011;51686;46.758;4.356;2023-08-21T03:29:09;8.55;;;5.68;;
65096;SDS011;51686;46.758;4.356;2023-08-21T03:31:57;9.52;;;5.72;;
65096;SDS011;51686;46.758;4.356;2023-08-21T03:37:31;9.00;;;5.20;;
65096;SDS011;51686;46.758;4.356;2023-08-21T03:40:18;8.85;;;4.95;;
65096;SDS011;51686;46.758;4.356;2023-08-21T03:43:05;9.50;;;5.25;;
65096;SDS011;51686;46.758;4.356;2023-08-21T03:45:52;9.18;;;5.63;;
65096;SDS011;51686;46.758;4.356;2023-08-21T03:48:39;8.50;;;5.28;;
65096;SDS011;51686;46.758;4.356;2023-08-21T03:51:26;10.05;;;5.70;;
65096;SDS011;51686;46.758;4.356;2023-08-21T03:54:13;9.95;;;5.72;;
65096;SDS011;51686;46.758;4.356;2023-08-21T03:57:00;8.88;;;5.20;;
65096;SDS011;51686;46.758;4.356;2023-08-21T03:59:47;8.60;;;5.57;;
65096;SDS011;51686;46.758;4.356;2023-08-21T04:02:33;9.15;;;5.55;;
65096;SDS011;51686;46.758;4.356;2023-08-21T04:05:20;9.13;;;5.88;;
65096;SDS011;51686;46.758;4.356;2023-08-21T04:08:07;8.93;;;5.68;;
65096;SDS011;51686;46.758;4.356;2023-08-21T04:10:54;8.35;;;5.18;;
65096;SDS011;51686;46.758;4.356;2023-08-21T04:13:45;8.85;;;5.40;;
65096;SDS011;51686;46.758;4.356;2023-08-21T04:16:32;9.18;;;5.95;;
65096;SDS011;51686;46.758;4.356;2023-08-21T04:19:19;9.52;;;5.80;;
65096;SDS011;51686;46.758;4.356;2023-08-21T04:22:06;9.00;;;5.88;;
65096;SDS011;51686;46.758;4.356;2023-08-21T04:24:53;8.63;;;5.45;;
65096;SDS011;51686;46.758;4.356;2023-08-21T04:27:40;9.10;;;5.80;;
65096;SDS011;51686;46.758;4.356;2023-08-21T04:30:27;8.75;;;5.60;;
65096;SDS011;51686;46.758;4.356;2023-08-21T04:33:14;10.05;;;5.78;;
65096;SDS011;51686;46.758;4.356;2023-08-21T04:36:01;9.82;;;5.93;;
65096;SDS011;51686;46.758;4.356;2023-08-21T04:38:48;8.20;;;5.00;;
65096;SDS011;51686;46.758;4.356;2023-08-21T04:41:35;9.18;;;5.50;;
65096;SDS011;51686;46.758;4.356;2023-08-21T04:44:22;8.73;;;5.03;;
65096;SDS011;51686;46.758;4.356;2023-08-21T04:47:18;9.45;;;5.72;;
65096;SDS011;51686;46.758;4.356;2023-08-21T04:50:09;8.85;;;5.30;;
65096;SDS011;51686;46.758;4.356;2023-08-21T04:52:58;9.05;;;5.45;;
65096;SDS011;51686;46.758;4.356;2023-08-21T04:55:45;8.90;;;5.53;;
65096;SDS011;51686;46.758;4.356;2023-08-21T04:58:32;8.80;;;5.70;;
65096;SDS011;51686;46.758;4.356;2023-08-21T05:01:19;12.27;;;6.38;;
65096;SDS011;51686;46.758;4.356;2023-08-21T05:04:06;10.15;;;5.97;;
65096;SDS011;51686;46.758;4.356;2023-08-21T05:06:53;8.57;;;5.43;;
65096;SDS011;51686;46.758;4.356;2023-08-21T05:09:39;9.40;;;5.32;;
65096;SDS011;51686;46.758;4.356;2023-08-21T05:12:26;9.27;;;5.28;;
65096;SDS011;51686;46.758;4.356;2023-08-21T05:15:14;8.73;;;5.47;;
65096;SDS011;51686;46.758;4.356;2023-08-21T05:18:01;9.90;;;5.57;;
65096;SDS011;51686;46.758;4.356;2023-08-21T05:20:48;8.60;;;5.40;;
65096;SDS011;51686;46.758;4.356;2023-08-21T05:23:35;9.88;;;5.40;;
65096;SDS011;51686;46.758;4.356;2023-08-21T05:26:22;9.18;;;5.68;;
65096;SDS011;51686;46.758;4.356;2023-08-21T05:29:09;8.98;;;5.53;;
65096;SDS011;51686;46.758;4.356;2023-08-21T05:31:56;8.77;;;5.47;;
65096;SDS011;51686;46.758;4.356;2023-08-21T05:34:43;9.90;;;5.60;;
65096;SDS011;51686;46.758;4.356;2023-08-21T05:37:31;10.15;;;5.80;;
65096;SDS011;51686;46.758;4.356;2023-08-21T05:40:18;9.27;;;5.57;;
65096;SDS011;51686;46.758;4.356;2023-08-21T05:43:05;8.97;;;5.80;;
65096;SDS011;51686;46.758;4.356;2023-08-21T05:45:52;8.93;;;5.75;;
65096;SDS011;51686;46.758;4.356;2023-08-21T05:48:39;8.95;;;5.88;;
65096;SDS011;51686;46.758;4.356;2023-08-21T05:51:26;10.05;;;5.53;;
65096;SDS011;51686;46.758;4.356;2023-08-21T05:54:13;9.43;;;5.68;;
65096;SDS011;51686;46.758;4.356;2023-08-21T05:57:00;9.32;;;5.90;;
65096;SDS011;51686;46.758;4.356;2023-08-21T05:59:47;10.63;;;6.03;;
65096;SDS011;51686;46.758;4.356;2023-08-21T06:02:34;9.93;;;6.15;;
65096;SDS011;51686;46.758;4.356;2023-08-21T06:05:21;11.50;;;6.18;;
65096;SDS011;51686;46.758;4.356;2023-08-21T06:08:08;9.77;;;6.05;;
65096;SDS011;51686;46.758;4.356;2023-08-21T06:10:55;9.60;;;6.10;;
65096;SDS011;51686;46.758;4.356;2023-08-21T06:13:42;10.40;;;6.35;;
65096;SDS011;51686;46.758;4.356;2023-08-21T06:16:30;11.07;;;6.30;;
65096;SDS011;51686;46.758;4.356;2023-08-21T06:19:17;10.75;;;6.80;;
65096;SDS011;51686;46.758;4.356;2023-08-21T06:22:04;11.77;;;6.57;;
65096;SDS011;51686;46.758;4.356;2023-08-21T06:24:51;10.37;;;6.03;;
65096;SDS011;51686;46.758;4.356;2023-08-21T06:27:38;10.07;;;6.63;;
65096;SDS011;51686;46.758;4.356;2023-08-21T06:30:43;9.70;;;6.28;;
65096;SDS011;51686;46.758;4.356;2023-08-21T06:33:30;10.40;;;6.60;;
65096;SDS011;51686;46.758;4.356;2023-08-21T06:36:18;9.50;;;6.38;;
65096;SDS011;51686;46.758;4.356;2023-08-21T06:39:05;9.82;;;6.40;;
65096;SDS011;51686;46.758;4.356;2023-08-21T06:41:52;10.45;;;6.65;;
65096;SDS011;51686;46.758;4.356;2023-08-21T06:44:39;9.90;;;6.47;;
65096;SDS011;51686;46.758;4.356;2023-08-21T06:47:26;9.73;;;6.78;;
65096;SDS011;51686;46.758;4.356;2023-08-21T06:50:13;9.60;;;6.57;;
65096;SDS011;51686;46.758;4.356;2023-08-21T06:53:00;9.73;;;6.55;;
65096;SDS011;51686;46.758;4.356;2023-08-21T06:55:47;9.85;;;6.47;;
65096;SDS011;51686;46.758;4.356;2023-08-21T06:58:34;10.13;;;6.60;;
65096;SDS011;51686;46.758;4.356;2023-08-21T07:01:21;10.00;;;7.07;;
65096;SDS011;51686;46.758;4.356;2023-08-21T07:04:08;9.68;;;6.47;;
65096;SDS011;51686;46.758;4.356;2023-08-21T07:06:55;10.45;;;7.15;;
65096;SDS011;51686;46.758;4.356;2023-08-21T07:09:42;11.43;;;7.00;;
65096;SDS011;51686;46.758;4.356;2023-08-21T07:12:29;10.65;;;6.90;;
65096;SDS011;51686;46.758;4.356;2023-08-21T07:15:16;10.90;;;6.43;;
65096;SDS011;51686;46.758;4.356;2023-08-21T07:18:03;9.93;;;6.82;;
65096;SDS011;51686;46.758;4.356;2023-08-21T07:20:53;9.20;;;6.20;;
65096;SDS011;51686;46.758;4.356;2023-08-21T07:23:40;10.52;;;6.70;;
65096;SDS011;51686;46.758;4.356;2023-08-21T07:26:27;10.50;;;6.47;;
65096;SDS011;51686;46.758;4.356;2023-08-21T07:29:15;9.90;;;6.90;;
65096;SDS011;51686;46.758;4.356;2023-08-21T07:32:02;10.05;;;6.78;;
65096;SDS011;51686;46.758;4.356;2023-08-21T07:34:52;11.73;;;7.13;;
65096;SDS011;51686;46.758;4.356;2023-08-21T07:37:44;10.55;;;6.55;;
65096;SDS011;51686;46.758;4.356;2023-08-21T07:40:31;10.20;;;7.25;;
65096;SDS011;51686;46.758;4.356;2023-08-21T07:43:18;10.07;;;7.13;;
65096;SDS011;51686;46.758;4.356;2023-08-21T07:46:05;10.27;;;6.75;;
65096;SDS011;51686;46.758;4.356;2023-08-21T07:48:53;9.68;;;6.88;;
65096;SDS011;51686;46.758;4.356;2023-08-21T07:51:41;10.13;;;6.70;;
65096;SDS011;51686;46.758;4.356;2023-08-21T07:54:27;11.23;;;7.70;;
65096;SDS011;51686;46.758;4.356;2023-08-21T07:57:14;10.32;;;6.32;;
65096;SDS011;51686;46.758;4.356;2023-08-21T08:00:01;9.82;;;6.57;;
65096;SDS011;51686;46.758;4.356;2023-08-21T08:02:48;10.57;;;6.57;;
65096;SDS011;51686;46.758;4.356;2023-08-21T08:05:35;9.73;;;6.70;;
65096;SDS011;51686;46.758;4.356;2023-08-21T08:08:22;9.77;;;6.50;;
65096;SDS011;51686;46.758;4.356;2023-08-21T08:11:10;8.82;;;6.18;;
65096;SDS011;51686;46.758;4.356;2023-08-21T08:13:57;10.27;;;6.80;;
65096;SDS011;51686;46.758;4.356;2023-08-21T08:16:44;9.93;;;6.78;;
65096;SDS011;51686;46.758;4.356;2023-08-21T08:19:31;9.95;;;6.95;;
65096;SDS011;51686;46.758;4.356;2023-08-21T08:22:17;10.07;;;6.88;;
65096;SDS011;51686;46.758;4.356;2023-08-21T08:25:05;9.77;;;6.53;;
65096;SDS011;51686;46.758;4.356;2023-08-21T08:27:55;9.90;;;6.70;;
65096;SDS011;51686;46.758;4.356;2023-08-21T08:30:42;9.65;;;6.50;;
65096;SDS011;51686;46.758;4.356;2023-08-21T08:33:29;9.70;;;6.50;;
65096;SDS011;51686;46.758;4.356;2023-08-21T08:36:16;9.38;;;6.18;;
65096;SDS011;51686;46.758;4.356;2023-08-21T08:39:03;9.30;;;6.47;;
65096;SDS011;51686;46.758;4.356;2023-08-21T08:41:56;9.65;;;5.97;;
65096;SDS011;51686;46.758;4.356;2023-08-21T08:44:46;8.88;;;6.07;;
65096;SDS011;51686;46.758;4.356;2023-08-21T08:47:34;9.18;;;6.38;;
65096;SDS011;51686;46.758;4.356;2023-08-21T08:50:22;9.63;;;6.30;;
65096;SDS011;51686;46.758;4.356;2023-08-21T08:53:10;9.90;;;7.05;;
65096;SDS011;51686;46.758;4.356;2023-08-21T08:56:03;10.73;;;7.63;;
65096;SDS011;51686;46.758;4.356;2023-08-21T08:58:50;11.35;;;8.52;;
65096;SDS011;51686;46.758;4.356;2023-08-21T09:01:37;12.13;;;8.05;;
65096;SDS011;51686;46.758;4.356;2023-08-21T09:04:24;12.38;;;8.40;;
65096;SDS011;51686;46.758;4.356;2023-08-21T09:07:12;10.15;;;7.25;;
65096;SDS011;51686;46.758;4.356;2023-08-21T09:10:00;9.75;;;6.97;;
65096;SDS011;51686;46.758;4.356;2023-08-21T09:12:47;9.93;;;6.90;;
65096;SDS011;51686;46.758;4.356;2023-08-21T09:15:34;9.73;;;6.38;;
65096;SDS011;51686;46.758;4.356;2023-08-21T09:18:28;11.18;;;7.63;;
65096;SDS011;51686;46.758;4.356;2023-08-21T09:21:15;13.02;;;8.20;;
65096;SDS011;51686;46.758;4.356;2023-08-21T09:24:05;11.73;;;7.45;;
65096;SDS011;51686;46.758;4.356;2023-08-21T09:26:52;9.68;;;6.93;;
65096;SDS011;51686;46.758;4.356;2023-08-21T09:29:39;10.38;;;6.68;;
65096;SDS011;51686;46.758;4.356;2023-08-21T09:32:29;10.00;;;6.80;;
65096;SDS011;51686;46.758;4.356;2023-08-21T09:35:17;9.85;;;6.40;;
65096;SDS011;51686;46.758;4.356;2023-08-21T09:38:04;10.45;;;6.50;;
65096;SDS011;51686;46.758;4.356;2023-08-21T09:40:54;12.23;;;6.83;;
65096;SDS011;51686;46.758;4.356;2023-08-21T09:43:42;9.85;;;6.88;;
65096;SDS011;51686;46.758;4.356;2023-08-21T09:46:29;9.23;;;5.83;;
65096;SDS011;51686;46.758;4.356;2023-08-21T09:49:16;8.23;;;5.30;;
65096;SDS011;51686;46.758;4.356;2023-08-21T09:52:04;8.60;;;5.57;;
65096;SDS011;51686;46.758;4.356;2023-08-21T09:54:53;8.13;;;5.15;;
65096;SDS011;51686;46.758;4.356;2023-08-21T09:57:40;10.43;;;6.80;;
65096;SDS011;51686;46.758;4.356;2023-08-21T10:00:33;10.65;;;6.97;;
65096;SDS011;51686;46.758;4.356;2023-08-21T10:03:22;9.70;;;6.13;;
65096;SDS011;51686;46.758;4.356;2023-08-21T10:06:09;9.85;;;5.30;;
65096;SDS011;51686;46.758;4.356;2023-08-21T10:08:57;9.20;;;5.07;;
65096;SDS011;51686;46.758;4.356;2023-08-21T10:14:32;11.68;;;5.57;;
65096;SDS011;51686;46.758;4.356;2023-08-21T10:17:19;8.93;;;5.28;;
65096;SDS011;51686;46.758;4.356;2023-08-21T10:20:06;8.57;;;4.80;;
65096;SDS011;51686;46.758;4.356;2023-08-21T10:23:00;9.05;;;5.32;;
65096;SDS011;51686;46.758;4.356;2023-08-21T10:25:48;11.85;;;6.75;;
65096;SDS011;51686;46.758;4.356;2023-08-21T10:28:54;9.60;;;6.00;;
65096;SDS011;51686;46.758;4.356;2023-08-21T10:31:41;9.98;;;5.90;;
65096;SDS011;51686;46.758;4.356;2023-08-21T10:34:31;8.50;;;4.80;;
65096;SDS011;51686;46.758;4.356;2023-08-21T10:37:21;9.82;;;5.65;;
65096;SDS011;51686;46.758;4.356;2023-08-21T10:40:08;9.98;;;7.07;;
65096;SDS011;51686;46.758;4.356;2023-08-21T10:46:26;10.25;;;6.38;;
65096;SDS011;51686;46.758;4.356;2023-08-21T10:49:13;9.70;;;6.27;;
65096;SDS011;51686;46.758;4.356;2023-08-21T10:52:01;9.57;;;6.28;;
65096;SDS011;51686;46.758;4.356;2023-08-21T10:54:49;9.77;;;5.75;;
65096;SDS011;51686;46.758;4.356;2023-08-21T10:57:37;8.60;;;5.53;;
65096;SDS011;51686;46.758;4.356;2023-08-21T11:00:25;11.75;;;6.90;;
65096;SDS011;51686;46.758;4.356;2023-08-21T11:03:11;9.55;;;6.07;;
65096;SDS011;51686;46.758;4.356;2023-08-21T11:06:02;11.03;;;6.40;;
65096;SDS011;51686;46.758;4.356;2023-08-21T11:08:50;9.70;;;5.75;;
65096;SDS011;51686;46.758;4.356;2023-08-21T11:11:37;9.97;;;6.10;;
65096;SDS011;51686;46.758;4.356;2023-08-21T11:14:27;9.23;;;5.67;;
65096;SDS011;51686;46.758;4.356;2023-08-21T11:17:14;8.50;;;5.00;;
65096;SDS011;51686;46.758;4.356;2023-08-21T11:20:01;9.65;;;5.60;;
65096;SDS011;51686;46.758;4.356;2023-08-21T11:22:55;9.93;;;5.30;;
65096;SDS011;51686;46.758;4.356;2023-08-21T11:25:43;11.82;;;6.15;;
65096;SDS011;51686;46.758;4.356;2023-08-21T11:28:30;8.77;;;5.40;;
65096;SDS011;51686;46.758;4.356;2023-08-21T11:31:17;9.00;;;4.90;;
65096;SDS011;51686;46.758;4.356;2023-08-21T11:34:04;8.50;;;4.25;;
65096;SDS011;51686;46.758;4.356;2023-08-21T11:37:08;8.57;;;4.20;;
65096;SDS011;51686;46.758;4.356;2023-08-21T11:39:56;7.38;;;3.95;;
65096;SDS011;51686;46.758;4.356;2023-08-21T11:42:44;7.70;;;4.00;;
65096;SDS011;51686;46.758;4.356;2023-08-21T11:45:31;8.52;;;4.05;;
65096;SDS011;51686;46.758;4.356;2023-08-21T11:48:31;7.75;;;4.30;;
65096;SDS011;51686;46.758;4.356;2023-08-21T11:51:19;7.70;;;4.10;;
65096;SDS011;51686;46.758;4.356;2023-08-21T11:54:06;8.07;;;4.27;;
65096;SDS011;51686;46.758;4.356;2023-08-21T11:56:53;7.65;;;3.88;;
65096;SDS011;51686;46.758;4.356;2023-08-21T11:59:40;7.80;;;4.05;;
65096;SDS011;51686;46.758;4.356;2023-08-21T12:02:27;7.50;;;4.00;;
65096;SDS011;51686;46.758;4.356;2023-08-21T12:05:15;7.60;;;4.20;;
65096;SDS011;51686;46.758;4.356;2023-08-21T12:08:02;9.75;;;3.95;;
65096;SDS011;51686;46.758;4.356;2023-08-21T12:10:50;7.60;;;4.07;;
65096;SDS011;51686;46.758;4.356;2023-08-21T12:13:38;8.27;;;4.22;;
65096;SDS011;51686;46.758;4.356;2023-08-21T12:16:25;7.80;;;3.97;;
65096;SDS011;51686;46.758;4.356;2023-08-21T12:19:12;7.95;;;4.13;;
65096;SDS011;51686;46.758;4.356;2023-08-21T12:22:01;7.25;;;3.92;;
65096;SDS011;51686;46.758;4.356;2023-08-21T12:24:47;7.53;;;4.20;;
65096;SDS011;51686;46.758;4.356;2023-08-21T12:27:34;7.73;;;3.83;;
65096;SDS011;51686;46.758;4.356;2023-08-21T12:30:21;7.72;;;3.65;;
65096;SDS011;51686;46.758;4.356;2023-08-21T12:33:08;7.67;;;4.17;;
65096;SDS011;51686;46.758;4.356;2023-08-21T12:36:08;7.22;;;3.85;;
65096;SDS011;51686;46.758;4.356;2023-08-21T12:38:55;7.95;;;4.00;;
65096;SDS011;51686;46.758;4.356;2023-08-21T12:41:42;7.57;;;4.03;;
65096;SDS011;51686;46.758;4.356;2023-08-21T12:44:29;7.40;;;3.58;;
65096;SDS011;51686;46.758;4.356;2023-08-21T12:47:16;7.30;;;4.00;;
65096;SDS011;51686;46.758;4.356;2023-08-21T12:50:03;7.68;;;3.88;;
65096;SDS011;51686;46.758;4.356;2023-08-21T12:52:50;7.50;;;4.00;;
65096;SDS011;51686;46.758;4.356;2023-08-21T12:55:37;7.15;;;3.75;;
65096;SDS011;51686;46.758;4.356;2023-08-21T12:58:24;6.93;;;3.80;;
65096;SDS011;51686;46.758;4.356;2023-08-21T13:01:12;8.43;;;4.38;;
65096;SDS011;51686;46.758;4.356;2023-08-21T13:03:59;7.38;;;3.92;;
65096;SDS011;51686;46.758;4.356;2023-08-21T13:06:46;8.20;;;3.70;;
65096;SDS011;51686;46.758;4.356;2023-08-21T13:09:33;7.97;;;4.07;;
65096;SDS011;51686;46.758;4.356;2023-08-21T13:12:20;7.03;;;3.72;;
65096;SDS011;51686;46.758;4.356;2023-08-21T13:15:07;6.95;;;3.70;;
65096;SDS011;51686;46.758;4.356;2023-08-21T13:17:54;7.80;;;4.00;;
65096;SDS011;51686;46.758;4.356;2023-08-21T13:20:41;7.53;;;3.47;;
65096;SDS011;51686;46.758;4.356;2023-08-21T13:23:29;7.25;;;3.85;;
65096;SDS011;51686;46.758;4.356;2023-08-21T13:26:16;7.18;;;3.95;;
65096;SDS011;51686;46.758;4.356;2023-08-21T13:29:03;6.97;;;3.58;;
65096;SDS011;51686;46.758;4.356;2023-08-21T13:31:50;7.13;;;3.90;;
65096;SDS011;51686;46.758;4.356;2023-08-21T13:34:37;7.53;;;3.90;;
65096;SDS011;51686;46.758;4.356;2023-08-21T13:37:24;7.30;;;4.03;;
65096;SDS011;51686;46.758;4.356;2023-08-21T13:40:14;7.32;;;4.10;;
65096;SDS011;51686;46.758;4.356;2023-08-21T13:43:03;7.53;;;4.10;;
65096;SDS011;51686;46.758;4.356;2023-08-21T13:45:50;7.68;;;4.10;;
65096;SDS011;51686;46.758;4.356;2023-08-21T13:48:36;7.37;;;3.70;;
65096;SDS011;51686;46.758;4.356;2023-08-21T13:51:23;7.40;;;4.00;;
65096;SDS011;51686;46.758;4.356;2023-08-21T13:54:10;8.33;;;3.73;;
65096;SDS011;51686;46.758;4.356;2023-08-21T13:56:58;7.45;;;3.80;;
65096;SDS011;51686;46.758;4.356;2023-08-21T13:59:46;7.53;;;3.70;;
65096;SDS011;51686;46.758;4.356;2023-08-21T14:02:33;7.30;;;3.80;;
65096;SDS011;51686;46.758;4.356;2023-08-21T14:05:21;7.35;;;3.97;;
65096;SDS011;51686;46.758;4.356;2023-08-21T14:08:08;8.63;;;4.00;;
65096;SDS011;51686;46.758;4.356;2023-08-21T14:10:55;6.63;;;3.60;;
65096;SDS011;51686;46.758;4.356;2023-08-21T14:13:42;8.70;;;4.03;;
65096;SDS011;51686;46.758;4.356;2023-08-21T14:16:29;10.93;;;4.97;;
65096;SDS011;51686;46.758;4.356;2023-08-21T14:19:16;9.98;;;5.22;;
65096;SDS011;51686;46.758;4.356;2023-08-21T14:22:03;10.43;;;4.82;;
65096;SDS011;51686;46.758;4.356;2023-08-21T14:24:52;12.05;;;5.22;;
65096;SDS011;51686;46.758;4.356;2023-08-21T14:27:38;10.40;;;5.03;;
65096;SDS011;51686;46.758;4.356;2023-08-21T14:33:13;10.38;;;5.32;;
65096;SDS011;51686;46.758;4.356;2023-08-21T14:36:00;10.10;;;5.47;;
65096;SDS011;51686;46.758;4.356;2023-08-21T14:38:47;9.10;;;5.63;;
65096;SDS011;51686;46.758;4.356;2023-08-21T14:41:33;9.63;;;5.20;;
65096;SDS011;51686;46.758;4.356;2023-08-21T14:44:20;9.27;;;5.37;;
65096;SDS011;51686;46.758;4.356;2023-08-21T14:47:07;10.45;;;5.28;;
65096;SDS011;51686;46.758;4.356;2023-08-21T14:49:54;9.02;;;5.25;;
65096;SDS011;51686;46.758;4.356;2023-08-21T14:52:41;11.07;;;5.35;;
65096;SDS011;51686;46.758;4.356;2023-08-21T14:55:28;9.70;;;5.47;;
65096;SDS011;51686;46.758;4.356;2023-08-21T14:58:15;10.70;;;4.93;;
65096;SDS011;51686;46.758;4.356;2023-08-21T15:01:02;13.80;;;5.57;;
65096;SDS011;51686;46.758;4.356;2023-08-21T15:03:51;11.63;;;5.30;;
65096;SDS011;51686;46.758;4.356;2023-08-21T15:06:38;8.77;;;5.00;;
65096;SDS011;51686;46.758;4.356;2023-08-21T15:09:25;11.43;;;5.00;;
65096;SDS011;51686;46.758;4.356;2023-08-21T15:12:12;9.82;;;4.97;;
65096;SDS011;51686;46.758;4.356;2023-08-21T15:14:59;10.05;;;5.57;;
65096;SDS011;51686;46.758;4.356;2023-08-21T15:17:46;11.60;;;5.63;;
65096;SDS011;51686;46.758;4.356;2023-08-21T15:23:20;9.13;;;5.10;;
65096;SDS011;51686;46.758;4.356;2023-08-21T15:26:07;10.10;;;5.67;;
65096;SDS011;51686;46.758;4.356;2023-08-21T15:28:53;12.23;;;5.07;;
65096;SDS011;51686;46.758;4.356;2023-08-21T15:31:40;9.38;;;5.53;;
65096;SDS011;51686;46.758;4.356;2023-08-21T15:34:27;10.65;;;5.38;;
65096;SDS011;51686;46.758;4.356;2023-08-21T15:37:14;10.47;;;5.10;;
65096;SDS011;51686;46.758;4.356;2023-08-21T15:40:01;10.32;;;4.95;;
65096;SDS011;51686;46.758;4.356;2023-08-21T15:42:48;8.55;;;4.68;;
65096;SDS011;51686;46.758;4.356;2023-08-21T15:45:35;8.57;;;4.37;;
65096;SDS011;51686;46.758;4.356;2023-08-21T15:48:22;8.00;;;4.28;;
65096;SDS011;51686;46.758;4.356;2023-08-21T15:51:13;8.13;;;4.40;;
65096;SDS011;51686;46.758;4.356;2023-08-21T15:54:00;10.00;;;4.97;;
65096;SDS011;51686;46.758;4.356;2023-08-21T15:56:47;9.03;;;4.63;;
65096;SDS011;51686;46.758;4.356;2023-08-21T15:59:34;10.07;;;5.07;;
65096;SDS011;51686;46.758;4.356;2023-08-21T16:02:20;10.27;;;5.00;;
65096;SDS011;51686;46.758;4.356;2023-08-21T16:05:08;9.48;;;4.60;;
65096;SDS011;51686;46.758;4.356;2023-08-21T16:07:55;9.50;;;4.53;;
65096;SDS011;51686;46.758;4.356;2023-08-21T16:10:42;7.75;;;4.00;;
65096;SDS011;51686;46.758;4.356;2023-08-21T16:13:29;9.18;;;5.28;;
65096;SDS011;51686;46.758;4.356;2023-08-21T16:16:16;9.95;;;4.90;;
65096;SDS011;51686;46.758;4.356;2023-08-21T16:19:03;9.07;;;4.82;;
65096;SDS011;51686;46.758;4.356;2023-08-21T16:21:50;8.63;;;4.37;;
65096;SDS011;51686;46.758;4.356;2023-08-21T16:24:37;7.93;;;4.35;;
65096;SDS011;51686;46.758;4.356;2023-08-21T16:27:24;9.90;;;5.20;;
65096;SDS011;51686;46.758;4.356;2023-08-21T16:30:11;9.83;;;5.07;;
65096;SDS011;51686;46.758;4.356;2023-08-21T16:32:58;8.18;;;4.72;;
65096;SDS011;51686;46.758;4.356;2023-08-21T16:35:45;9.45;;;4.75;;
65096;SDS011;51686;46.758;4.356;2023-08-21T16:38:32;8.63;;;4.23;;
65096;SDS011;51686;46.758;4.356;2023-08-21T16:41:19;9.05;;;4.20;;
65096;SDS011;51686;46.758;4.356;2023-08-21T16:44:06;8.93;;;4.47;;
65096;SDS011;51686;46.758;4.356;2023-08-21T16:46:54;8.30;;;4.28;;
65096;SDS011;51686;46.758;4.356;2023-08-21T16:49:40;8.87;;;4.80;;
65096;SDS011;51686;46.758;4.356;2023-08-21T16:52:27;8.82;;;4.38;;
65096;SDS011;51686;46.758;4.356;2023-08-21T16:55:14;11.00;;;5.10;;
65096;SDS011;51686;46.758;4.356;2023-08-21T16:58:01;8.83;;;4.60;;
65096;SDS011;51686;46.758;4.356;2023-08-21T17:00:48;10.65;;;5.00;;
65096;SDS011;51686;46.758;4.356;2023-08-21T17:03:35;9.63;;;5.25;;